Time;durP1;ratioP1;P1;durP2;ratioP2;P2;SDS_P1;SDS_P2;PMS_P1;PMS_P2;Temp;Humidity;BMP_temperature;BMP_pressure;BME280_temperature;BME280_humidity;BME280_pressure;Samples;Min_cycle;Max_cycle;Signal;HPM_P1;HPM_P2
2022/07/16 00:01:25;;;;;;;4.72;2.70;;;;;;;16.33;66.54;99481.10;1732626;82;21039;-43
2022/07/16 00:04:00;;;;;;;2.67;2.42;;;;;;;16.32;66.75;99481.48;1732866;82;21597;-43
2022/07/16 00:06:28;;;;;;;3.67;2.35;;;;;;;16.30;66.81;99486.01;1732377;82;21091;-43
2022/07/16 00:08:56;;;;;;;4.75;2.37;;;;;;;16.27;67.05;99485.41;1733113;82;21046;-43
2022/07/16 00:11:23;;;;;;;7.25;2.17;;;;;;;16.24;67.00;99482.11;1732750;82;22016;-43
2022/07/16 00:13:50;;;;;;;6.62;2.90;;;;;;;16.23;67.00;99484.64;1732730;82;21581;-44
2022/07/16 00:16:17;;;;;;;4.42;2.50;;;;;;;16.21;66.96;99483.48;1751524;81;21603;-43
2022/07/16 00:21:29;;;;;;;5.25;2.42;;;;;;;16.16;66.67;99492.09;1774584;80;21563;-43
2022/07/16 00:23:57;;;;;;;11.30;2.85;;;;;;;16.08;66.86;99493.45;1782534;80;21234;-43
2022/07/16 00:26:23;;;;;;;3.17;2.12;;;;;;;16.05;66.73;99498.94;1782434;80;20961;-43
2022/07/16 00:28:50;;;;;;;3.30;2.50;;;;;;;15.99;66.95;99497.18;1782417;80;21005;-43
2022/07/16 00:31:18;;;;;;;4.85;2.20;;;;;;;15.94;66.99;99498.94;1782458;80;20969;-43
2022/07/16 00:33:45;;;;;;;2.83;2.40;;;;;;;15.92;66.97;99499.94;1782432;80;21024;-43
2022/07/16 00:36:12;;;;;;;6.40;2.45;;;;;;;15.91;67.05;99500.31;1782457;80;21206;-43
2022/07/16 00:38:39;;;;;;;5.87;2.52;;;;;;;15.90;67.06;99500.11;1782270;80;20960;-43
2022/07/16 00:41:16;;;;;;;3.45;2.42;;;;;;;15.88;67.08;99503.23;1782439;80;20960;-43
2022/07/16 00:44:03;;;;;;;3.47;2.12;;;;;;;15.86;67.31;99504.23;1781175;80;20951;-43
2022/07/16 00:46:30;;;;;;;3.47;2.05;;;;;;;15.85;67.40;99501.88;1782469;80;20997;-43
2022/07/16 00:48:57;;;;;;;2.52;2.10;;;;;;;15.78;67.40;99494.44;1782471;80;21228;-43
2022/07/16 00:51:25;;;;;;;2.95;2.15;;;;;;;15.75;67.43;99505.38;1782320;80;21601;-43
2022/07/16 00:53:52;;;;;;;2.98;2.00;;;;;;;15.74;67.43;99499.13;1782584;80;21000;-43
2022/07/16 00:56:19;;;;;;;7.65;1.92;;;;;;;15.75;67.49;99495.23;1782266;80;20988;-43
2022/07/16 00:58:47;;;;;;;3.37;2.08;;;;;;;15.79;67.62;99494.64;1782485;80;21028;-43
2022/07/16 01:01:15;;;;;;;4.33;2.00;;;;;;;15.83;67.66;99496.78;1782346;80;21145;-43
2022/07/16 01:03:42;;;;;;;6.60;2.08;;;;;;;15.85;67.64;99497.19;1782604;80;20906;-43
2022/07/16 01:06:10;;;;;;;3.87;2.17;;;;;;;15.87;67.61;99489.39;1782451;80;20902;-43
2022/07/16 01:08:41;;;;;;;3.65;2.42;;;;;;;15.87;67.32;99486.66;1782571;80;21621;-43
2022/07/16 01:11:11;;;;;;;2.17;1.90;;;;;;;15.84;67.16;99492.10;1782329;80;20973;-43
2022/07/16 01:13:39;;;;;;;3.40;2.10;;;;;;;15.81;67.10;99488.21;1782575;80;21527;-43
2022/07/16 01:16:08;;;;;;;4.78;2.20;;;;;;;15.81;67.08;99490.16;1782232;80;21008;-43
2022/07/16 01:18:36;;;;;;;2.67;2.02;;;;;;;15.80;67.30;99489.95;1782359;80;21044;-43
2022/07/16 01:21:04;;;;;;;3.95;2.12;;;;;;;15.78;67.49;99490.95;1782418;80;21370;-43
2022/07/16 01:23:31;;;;;;;2.42;1.98;;;;;;;15.73;67.83;99495.44;1782330;80;21064;-43
2022/07/16 01:25:58;;;;;;;2.47;1.87;;;;;;;15.61;68.14;99495.23;1782447;80;21897;-43
2022/07/16 01:28:25;;;;;;;4.20;2.30;;;;;;;15.51;68.38;99496.78;1782274;80;21510;-43
2022/07/16 01:30:52;;;;;;;8.88;2.12;;;;;;;15.49;68.46;99504.55;1782350;80;21530;-43
2022/07/16 01:33:31;;;;;;;3.98;1.98;;;;;;;15.50;68.39;99500.65;1782275;80;21439;-43
2022/07/16 01:36:09;;;;;;;4.67;2.10;;;;;;;15.52;68.18;99501.66;1782605;80;21072;-43
2022/07/16 01:38:43;;;;;;;2.98;2.20;;;;;;;15.51;67.96;99496.78;1781671;80;21336;-43
2022/07/16 01:41:10;;;;;;;3.55;2.30;;;;;;;15.54;67.89;99506.17;1782212;80;20898;-43
2022/07/16 01:43:37;;;;;;;2.90;2.10;;;;;;;15.54;67.72;99508.91;1782333;80;21008;-43
2022/07/16 01:46:04;;;;;;;3.75;2.20;;;;;;;15.55;67.73;99507.71;1782340;80;20941;-43
2022/07/16 01:48:32;;;;;;;3.27;2.08;;;;;;;15.57;67.98;99506.75;1782356;80;21076;-43
2022/07/16 01:51:00;;;;;;;4.72;2.22;;;;;;;15.58;68.01;99504.22;1782285;80;21189;-43
2022/07/16 01:53:29;;;;;;;4.05;2.20;;;;;;;15.60;68.04;99508.69;1782415;80;20977;-43
2022/07/16 01:55:57;;;;;;;2.75;2.05;;;;;;;15.63;68.16;99503.25;1782277;80;21003;-43
2022/07/16 01:58:24;;;;;;;3.42;2.00;;;;;;;15.64;68.07;99515.72;1782384;80;21055;-43
2022/07/16 02:00:52;;;;;;;6.30;2.30;;;;;;;15.67;68.13;99518.28;1782304;80;20972;-43
2022/07/16 02:03:20;;;;;;;3.52;2.30;;;;;;;15.70;68.00;99509.88;1782252;80;21130;-43
2022/07/16 02:05:47;;;;;;;3.37;2.27;;;;;;;15.68;67.99;99510.28;1782175;80;21008;-43
2022/07/16 02:08:15;;;;;;;3.10;2.27;;;;;;;15.70;68.02;99516.13;1782437;80;21218;-43
2022/07/16 02:10:42;;;;;;;7.00;2.20;;;;;;;15.72;67.96;99508.33;1782284;80;21012;-43
2022/07/16 02:13:09;;;;;;;3.77;2.02;;;;;;;15.72;67.81;99506.96;1782340;80;21008;-43
2022/07/16 02:15:38;;;;;;;4.35;2.20;;;;;;;15.73;67.67;99502.27;1778155;80;21527;-43
2022/07/16 02:18:05;;;;;;;5.95;2.25;;;;;;;15.74;67.39;99498.34;1774112;80;21536;-43
2022/07/16 02:20:33;;;;;;;4.65;2.40;;;;;;;15.73;67.08;99503.06;1773990;80;21025;-43
2022/07/16 02:23:01;;;;;;;5.53;2.33;;;;;;;15.70;66.86;99498.36;1773994;80;21605;-43
2022/07/16 02:25:28;;;;;;;8.43;2.35;;;;;;;15.70;66.91;99497.57;1773895;80;21518;-43
2022/07/16 02:28:08;;;;;;;4.35;2.27;;;;;;;15.67;66.75;99500.52;1774276;80;21309;-43
2022/07/16 02:30:45;;;;;;;2.62;1.90;;;;;;;15.62;66.71;99494.06;1774129;80;21078;-43
2022/07/16 02:33:15;;;;;;;5.87;1.98;;;;;;;15.59;66.55;99498.92;1774072;80;20978;-43
2022/07/16 02:35:42;;;;;;;11.08;2.12;;;;;;;15.55;66.64;99496.20;1773997;80;20989;-43
2022/07/16 02:38:10;;;;;;;3.30;1.92;;;;;;;15.53;66.59;99500.50;1774339;80;21053;-43
2022/07/16 02:40:38;;;;;;;4.37;1.98;;;;;;;15.52;66.59;99503.82;1774093;80;21231;-43
2022/07/16 02:43:06;;;;;;;2.65;2.22;;;;;;;15.49;66.75;99506.52;1774203;80;21523;-43
2022/07/16 02:45:35;;;;;;;6.00;2.10;;;;;;;15.37;67.03;99508.25;1774412;80;21036;-43
2022/07/16 02:48:02;;;;;;;6.92;2.30;;;;;;;15.30;67.20;99507.64;1774313;80;21053;-43
2022/07/16 02:50:29;;;;;;;2.85;2.00;;;;;;;15.20;67.32;99509.17;1774197;80;21088;-43
2022/07/16 02:52:58;;;;;;;3.27;2.27;;;;;;;15.15;67.54;99512.28;1768837;80;20998;-43
2022/07/16 02:55:26;;;;;;;5.08;2.02;;;;;;;15.11;67.60;99515.59;1773957;80;21039;-43
2022/07/16 02:57:53;;;;;;;5.53;2.25;;;;;;;15.02;67.57;99515.75;1774033;80;20957;-43
2022/07/16 03:00:22;;;;;;;4.05;2.17;;;;;;;14.88;67.90;99527.41;1774042;80;20973;-43
2022/07/16 03:02:49;;;;;;;3.60;2.15;;;;;;;14.77;68.16;99521.11;1774253;80;21081;-43
2022/07/16 03:05:16;;;;;;;4.37;2.10;;;;;;;14.75;68.33;99526.19;1774132;80;21231;-43
2022/07/16 03:07:44;;;;;;;2.90;2.00;;;;;;;14.74;68.37;99529.50;1774187;80;20994;-43
2022/07/16 03:10:12;;;;;;;5.83;2.35;;;;;;;14.73;68.49;99524.41;1774335;80;21081;-43
2022/07/16 03:12:40;;;;;;;3.12;2.22;;;;;;;14.72;68.70;99519.53;1774108;80;20926;-43
2022/07/16 03:15:09;;;;;;;3.87;2.15;;;;;;;14.76;68.95;99516.84;1774030;80;21088;-43
2022/07/16 03:17:36;;;;;;;2.52;1.95;;;;;;;14.84;69.17;99526.61;1774463;80;21227;-43
2022/07/16 03:20:05;;;;;;;4.22;2.10;;;;;;;14.91;69.35;99521.17;1774254;80;21057;-43
2022/07/16 03:22:32;;;;;;;2.87;2.30;;;;;;;14.96;69.57;99519.44;1774439;80;21041;-43
2022/07/16 03:24:59;;;;;;;3.50;2.60;;;;;;;15.04;69.56;99527.09;1774325;80;21022;-43
2022/07/16 03:27:26;;;;;;;2.77;2.30;;;;;;;15.12;69.46;99533.55;1774006;80;21590;-43
2022/07/16 03:29:53;;;;;;;4.05;2.27;;;;;;;15.16;69.55;99540.38;1774188;80;21133;-43
2022/07/16 03:32:20;;;;;;;4.35;2.42;;;;;;;15.10;69.51;99546.03;1774109;80;20997;-43
2022/07/16 03:34:47;;;;;;;5.42;2.40;;;;;;;15.00;69.41;99542.67;1773949;80;21591;-42
2022/07/16 03:37:14;;;;;;;3.58;2.62;;;;;;;14.95;69.63;99545.20;1774185;80;21784;-43
2022/07/16 03:39:41;;;;;;;4.50;2.62;;;;;;;14.91;69.94;99541.64;1774073;80;21044;-43
2022/07/16 03:42:08;;;;;;;3.35;2.40;;;;;;;14.87;70.15;99535.97;1774124;80;21140;-43
2022/07/16 03:44:35;;;;;;;3.42;2.67;;;;;;;14.87;70.28;99533.24;1773753;80;21508;-43
2022/07/16 03:47:03;;;;;;;7.28;2.60;;;;;;;14.95;70.48;99538.95;1774310;80;20926;-43
2022/07/16 03:49:29;;;;;;;5.05;2.37;;;;;;;15.01;70.66;99533.30;1774248;80;21013;-43
2022/07/16 03:51:56;;;;;;;4.22;2.40;;;;;;;15.07;70.82;99532.55;1774277;80;21661;-43
2022/07/16 03:54:24;;;;;;;3.90;2.60;;;;;;;15.11;70.87;99537.44;1774281;80;21206;-43
2022/07/16 03:56:51;;;;;;;4.85;2.67;;;;;;;15.12;71.26;99534.13;1774255;80;21571;-43
2022/07/16 03:59:18;;;;;;;3.00;2.40;;;;;;;15.15;71.52;99542.93;1774304;80;21039;-43
2022/07/16 04:01:45;;;;;;;7.58;2.52;;;;;;;15.15;71.67;99538.83;1774156;80;21296;-43
2022/07/16 04:04:14;;;;;;;4.35;2.10;;;;;;;15.19;71.98;99541.77;1774346;80;20898;-43
2022/07/16 04:06:41;;;;;;;3.50;2.30;;;;;;;15.29;72.25;99542.19;1774138;80;23123;-43
2022/07/16 04:09:08;;;;;;;3.87;2.47;;;;;;;15.37;72.47;99547.86;1774321;80;20898;-43
2022/07/16 04:11:35;;;;;;;2.83;2.55;;;;;;;15.41;72.53;99551.37;1774177;80;20965;-42
2022/07/16 04:14:02;;;;;;;7.78;2.40;;;;;;;15.48;72.50;99541.84;1774154;80;20970;-42
2022/07/16 04:16:30;;;;;;;5.10;2.37;;;;;;;15.58;72.54;99550.67;1778720;80;20997;-43
2022/07/16 04:18:59;;;;;;;2.83;2.45;;;;;;;15.69;72.58;99548.72;1782629;80;21141;-42
2022/07/16 04:21:26;;;;;;;5.37;2.72;;;;;;;15.75;72.58;99543.07;1782493;80;20893;-43
2022/07/16 04:23:53;;;;;;;4.10;2.60;;;;;;;15.89;72.66;99544.44;1782471;80;21019;-42
2022/07/16 04:26:20;;;;;;;4.95;2.40;;;;;;;16.01;72.52;99544.07;1782446;80;21526;-43
2022/07/16 04:28:47;;;;;;;3.77;2.30;;;;;;;16.15;72.41;99544.64;1782411;80;21040;-43
2022/07/16 04:31:15;;;;;;;4.87;2.22;;;;;;;16.29;72.13;99545.99;1782566;80;21236;-42
2022/07/16 04:33:43;;;;;;;4.80;2.42;;;;;;;16.41;71.59;99546.19;1782145;80;21004;-43
2022/07/16 04:36:11;;;;;;;2.90;2.35;;;;;;;16.55;71.19;99540.68;1782520;80;20991;-42
2022/07/16 04:38:40;;;;;;;5.15;2.58;;;;;;;16.67;71.00;99540.27;1782477;80;21005;-43
2022/07/16 04:41:07;;;;;;;3.95;2.33;;;;;;;16.81;70.93;99549.81;1782511;80;21027;-42
2022/07/16 04:43:34;;;;;;;5.85;2.40;;;;;;;16.90;70.44;99549.38;1782376;80;21155;-42
2022/07/16 04:46:01;;;;;;;3.65;2.50;;;;;;;16.99;70.41;99556.61;1782488;80;21550;-43
2022/07/16 04:48:28;;;;;;;2.90;2.45;;;;;;;17.06;70.04;99559.30;1782528;80;21771;-43
2022/07/16 04:50:56;;;;;;;3.72;2.42;;;;;;;17.11;68.93;99559.48;1782510;80;21534;-43
2022/07/16 04:53:22;;;;;;;4.53;2.25;;;;;;;17.15;69.15;99560.23;1782522;80;21037;-43
2022/07/16 04:55:50;;;;;;;3.35;2.27;;;;;;;17.24;69.05;99561.95;1782483;80;21238;-43
2022/07/16 04:58:16;;;;;;;6.83;2.80;;;;;;;17.30;66.26;99561.73;1782442;80;21005;-42
2022/07/16 05:00:44;;;;;;;3.77;2.20;;;;;;;17.36;64.97;99561.52;1782361;80;21468;-43
2022/07/16 05:03:11;;;;;;;3.70;2.65;;;;;;;17.46;64.88;99566.16;1782328;80;21595;-42
2022/07/16 05:05:38;;;;;;;3.25;2.22;;;;;;;17.57;65.33;99566.10;1782534;80;21037;-42
2022/07/16 05:08:07;;;;;;;4.03;2.35;;;;;;;17.65;65.20;99567.05;1782338;80;21227;-43
2022/07/16 05:10:35;;;;;;;5.30;2.45;;;;;;;17.73;64.86;99567.19;1782755;80;20972;-43
2022/07/16 05:13:03;;;;;;;4.30;2.50;;;;;;;17.85;64.64;99567.90;1782491;80;20914;-42
2022/07/16 05:15:31;;;;;;;4.05;2.40;;;;;;;17.88;64.58;99557.48;1782160;80;21032;-43
2022/07/16 05:17:58;;;;;;;5.05;2.30;;;;;;;17.92;63.97;99568.61;1779456;80;21005;-43
2022/07/16 05:20:26;;;;;;;4.45;2.05;;;;;;;17.97;61.80;99558.58;1779707;80;21144;-43
2022/07/16 05:22:53;;;;;;;4.78;2.42;;;;;;;18.00;61.94;99564.66;1779575;80;20914;-43
2022/07/16 05:25:21;;;;;;;3.55;2.27;;;;;;;18.09;61.35;99558.70;1779699;80;21072;-43
2022/07/16 05:27:50;;;;;;;3.98;2.40;;;;;;;18.15;61.19;99561.20;1779499;80;21595;-43
2022/07/16 05:30:17;;;;;;;4.12;2.27;;;;;;;18.24;61.43;99556.80;1779617;80;21076;-43
2022/07/16 05:32:45;;;;;;;4.60;2.17;;;;;;;18.32;61.39;99558.87;1779670;80;21134;-43
2022/07/16 05:35:15;;;;;;;4.45;2.27;;;;;;;18.37;61.06;99549.42;1779810;80;20977;-43
2022/07/16 05:37:42;;;;;;;5.00;2.17;;;;;;;18.45;60.86;99550.31;1779590;80;21479;-43
2022/07/16 05:40:10;;;;;;;4.47;2.58;;;;;;;18.54;60.61;99549.88;1779515;80;21009;-43
2022/07/16 05:42:38;;;;;;;3.10;2.02;;;;;;;18.64;59.83;99548.38;1779458;80;21072;-43
2022/07/16 05:45:08;;;;;;;5.12;2.33;;;;;;;18.75;59.89;99548.86;1779604;80;21258;-43
2022/07/16 05:47:36;;;;;;;6.92;2.02;;;;;;;18.84;59.60;99540.90;1779540;80;20983;-43
2022/07/16 05:50:05;;;;;;;2.52;1.90;;;;;;;18.96;58.72;99539.00;1779563;80;20978;-43
2022/07/16 05:52:33;;;;;;;4.05;1.90;;;;;;;19.09;58.51;99544.13;1779903;80;21009;-43
2022/07/16 05:55:00;;;;;;;4.62;2.45;;;;;;;19.20;58.62;99552.24;1779580;80;21132;-43
2022/07/16 05:57:27;;;;;;;4.75;2.10;;;;;;;19.29;58.49;99545.64;1779385;80;23091;-43
2022/07/16 05:59:55;;;;;;;3.67;1.98;;;;;;;19.36;57.58;99546.94;1779479;80;21016;-43
2022/07/16 06:02:22;;;;;;;5.80;2.27;;;;;;;19.43;57.85;99546.22;1779472;80;20965;-43
2022/07/16 06:04:50;;;;;;;4.05;2.10;;;;;;;19.49;57.97;99550.70;1779479;80;20925;-43
2022/07/16 06:07:17;;;;;;;3.65;2.10;;;;;;;19.53;56.81;99549.45;1779644;80;21025;-43
2022/07/16 06:09:44;;;;;;;4.15;2.50;;;;;;;19.53;55.73;99547.30;1779524;80;21291;-44
2022/07/16 06:12:11;;;;;;;3.70;2.17;;;;;;;19.52;56.40;99553.39;1779531;80;21001;-43
2022/07/16 06:14:40;;;;;;;2.70;2.00;;;;;;;19.56;57.49;99549.83;1779625;80;20981;-43
2022/07/16 06:17:07;;;;;;;3.92;2.12;;;;;;;19.61;58.33;99549.33;1780743;80;21667;-44
2022/07/16 06:19:34;;;;;;;4.45;2.10;;;;;;;19.68;58.21;99553.37;1782143;80;21013;-44
2022/07/16 06:22:01;;;;;;;4.80;2.27;;;;;;;19.74;56.91;99548.96;1782299;80;21256;-43
2022/07/16 06:24:29;;;;;;;4.45;2.20;;;;;;;19.82;56.44;99551.18;1782342;80;20956;-43
2022/07/16 06:26:56;;;;;;;5.03;2.27;;;;;;;19.89;56.18;99558.55;1782314;80;20974;-43
2022/07/16 06:29:23;;;;;;;4.53;2.30;;;;;;;19.94;55.93;99559.45;1782253;80;21568;-43
2022/07/16 06:31:50;;;;;;;3.87;2.22;;;;;;;20.00;56.26;99549.52;1781105;80;21535;-43
2022/07/16 06:34:18;;;;;;;4.65;2.10;;;;;;;20.09;55.38;99549.75;1743401;82;21467;-44
2022/07/16 06:36:45;;;;;;;2.00;1.80;;;;;;;20.13;55.72;99550.49;1743012;82;21001;-44
2022/07/16 06:39:13;;;;;;;3.75;2.47;;;;;;;20.20;55.97;99548.98;1743330;82;20965;-44
2022/07/16 06:41:40;;;;;;;3.90;2.33;;;;;;;20.29;56.50;99549.81;1743282;82;20898;-44
2022/07/16 06:44:09;;;;;;;4.20;2.10;;;;;;;20.38;56.64;99554.98;1743379;82;21033;-44
2022/07/16 06:46:37;;;;;;;5.53;2.42;;;;;;;20.49;56.38;99551.26;1743329;82;21200;-44
2022/07/16 06:49:03;;;;;;;5.15;1.82;;;;;;;20.58;55.83;99547.34;1743446;82;20998;-44
2022/07/16 06:51:31;;;;;;;4.28;1.90;;;;;;;20.68;54.34;99555.41;1743186;82;21012;-44
2022/07/16 06:53:58;;;;;;;2.75;2.10;;;;;;;20.76;53.56;99559.61;1743206;82;21020;-44
2022/07/16 06:56:25;;;;;;;4.42;2.22;;;;;;;20.82;53.58;99556.52;1743300;82;21029;-44
2022/07/16 06:58:52;;;;;;;3.52;1.77;;;;;;;20.86;53.13;99553.72;1743229;82;21222;-44
2022/07/16 07:01:19;;;;;;;3.70;1.50;;;;;;;20.94;53.52;99557.88;1743206;82;21036;-44
2022/07/16 07:03:47;;;;;;;4.20;1.45;;;;;;;21.03;49.44;99556.70;1743163;82;21032;-44
2022/07/16 07:06:14;;;;;;;2.65;1.47;;;;;;;21.08;48.62;99550.69;1743283;82;20978;-44
2022/07/16 07:08:43;;;;;;;3.17;1.90;;;;;;;21.18;48.33;99555.84;1738333;82;21008;-44
2022/07/16 07:11:11;;;;;;;3.22;1.47;;;;;;;21.30;48.40;99546.14;1743136;82;23217;-44
2022/07/16 07:13:40;;;;;;;1.77;1.37;;;;;;;21.40;49.00;99553.38;1743208;82;21519;-44
2022/07/16 07:16:07;;;;;;;3.90;1.60;;;;;;;21.49;47.36;99548.86;1743066;82;21012;-44
2022/07/16 07:18:34;;;;;;;3.12;1.57;;;;;;;21.58;46.07;99549.64;1735286;81;20910;-44
2022/07/16 07:21:01;;;;;;;3.15;1.90;;;;;;;21.66;46.62;99544.13;1735068;82;21042;-44
2022/07/16 07:23:28;;;;;;;3.47;2.00;;;;;;;21.72;47.48;99545.18;1735158;82;21233;-44
2022/07/16 07:25:55;;;;;;;3.98;1.90;;;;;;;21.75;47.09;99540.17;1734808;82;21553;-44
2022/07/16 07:28:22;;;;;;;3.52;1.90;;;;;;;21.78;47.76;99544.06;1735123;82;20934;-44
2022/07/16 07:30:49;;;;;;;3.58;2.02;;;;;;;21.81;48.08;99541.21;1734976;82;20950;-44
2022/07/16 07:33:16;;;;;;;3.90;1.98;;;;;;;21.85;47.03;99535.60;1735119;82;21010;-43
2022/07/16 07:35:44;;;;;;;3.27;1.80;;;;;;;21.87;46.27;99540.88;1734850;82;23205;-44
2022/07/16 07:38:11;;;;;;;3.62;1.67;;;;;;;21.92;46.98;99532.08;1734927;82;20977;-44
2022/07/16 07:40:38;;;;;;;2.52;1.57;;;;;;;22.04;47.12;99532.78;1735183;82;21497;-44
2022/07/16 07:43:05;;;;;;;4.00;1.67;;;;;;;22.19;47.17;99535.18;1735105;82;21046;-44
2022/07/16 07:45:32;;;;;;;3.25;2.00;;;;;;;22.32;47.28;99530.49;1735030;82;21050;-44
2022/07/16 07:47:59;;;;;;;4.17;2.00;;;;;;;22.43;46.22;99537.30;1734899;82;23106;-44
2022/07/16 07:50:26;;;;;;;3.90;1.72;;;;;;;22.47;45.90;99537.20;1734980;82;20966;-44
2022/07/16 07:52:53;;;;;;;6.62;2.27;;;;;;;22.55;45.92;99537.20;1735044;82;21120;-44
2022/07/16 07:55:20;;;;;;;3.40;1.70;;;;;;;22.61;46.35;99536.81;1735039;82;21085;-44
2022/07/16 07:57:48;;;;;;;3.00;1.50;;;;;;;22.76;46.78;99535.25;1730085;82;21030;-44
2022/07/16 08:00:15;;;;;;;2.17;1.30;;;;;;;22.92;46.41;99528.28;1735044;82;21214;-44
2022/07/16 08:02:44;;;;;;;4.85;1.82;;;;;;;23.03;46.63;99532.12;1734905;82;20966;-44
2022/07/16 08:05:11;;;;;;;3.55;1.72;;;;;;;23.09;45.74;99530.98;1735038;82;21516;-44
2022/07/16 08:07:39;;;;;;;2.65;1.60;;;;;;;23.11;44.79;99528.53;1734933;82;20969;-44
2022/07/16 08:10:08;;;;;;;3.85;1.67;;;;;;;23.19;44.84;99527.13;1735073;82;21009;-44
2022/07/16 08:12:36;;;;;;;4.95;1.70;;;;;;;23.33;43.83;99523.30;1735245;82;21089;-44
2022/07/16 08:15:05;;;;;;;1.92;1.50;;;;;;;23.44;44.24;99523.58;1734903;82;20974;-44
2022/07/16 08:17:33;;;;;;;2.58;1.52;;;;;;;23.53;43.32;99525.13;1741035;82;20941;-44
2022/07/16 08:20:00;;;;;;;3.55;1.50;;;;;;;23.57;43.86;99522.42;1748990;82;21009;-44
2022/07/16 08:22:27;;;;;;;2.33;1.52;;;;;;;23.65;42.78;99525.12;1749179;81;21041;-44
2022/07/16 08:27:40;;;;;;;4.53;1.60;;;;;;;23.53;41.93;99484.38;1749151;81;20926;-44
2022/07/16 08:30:08;;;;;;;2.62;1.50;;;;;;;23.86;42.31;99522.89;1749047;82;21008;-44
2022/07/16 08:32:36;;;;;;;4.17;1.57;;;;;;;23.96;42.46;99524.53;1749281;81;21016;-43
2022/07/16 08:35:05;;;;;;;2.72;1.40;;;;;;;24.02;42.00;99525.50;1749349;80;21038;-44
2022/07/16 08:37:37;;;;;;;3.20;1.77;;;;;;;24.08;41.97;99519.56;1749313;82;21049;-44
2022/07/16 08:40:08;;;;;;;3.02;1.70;;;;;;;24.14;42.27;99512.25;1710789;83;21060;-44
2022/07/16 08:42:36;;;;;;;4.22;1.65;;;;;;;24.18;41.06;99515.09;1749318;82;21546;-44
2022/07/16 08:45:05;;;;;;;2.37;1.37;;;;;;;24.25;41.16;99503.00;1710684;83;21036;-43
2022/07/16 08:47:33;;;;;;;3.72;1.62;;;;;;;24.34;40.40;99510.61;1749163;82;21056;-44
2022/07/16 08:50:01;;;;;;;1.77;1.30;;;;;;;24.44;39.03;99508.86;1710922;83;21183;-43
2022/07/16 08:52:29;;;;;;;2.65;1.30;;;;;;;24.48;39.15;99508.12;1710659;83;21021;-43
2022/07/16 08:54:57;;;;;;;2.35;1.60;;;;;;;24.49;40.21;99512.44;1749043;82;21597;-44
2022/07/16 08:57:24;;;;;;;4.67;1.60;;;;;;;24.45;37.84;99499.30;1710848;83;20945;-43
2022/07/16 08:59:52;;;;;;;2.65;1.45;;;;;;;24.40;36.43;99501.25;1721956;82;21081;-44
2022/07/16 09:02:19;;;;;;;5.40;1.40;;;;;;;24.30;36.90;99505.20;1779933;80;21319;-44
2022/07/16 09:04:45;;;;;;;2.80;1.35;;;;;;;24.20;38.09;99502.19;1779677;80;21032;-43
2022/07/16 09:07:15;;;;;;;2.85;1.70;;;;;;;24.09;38.82;99504.50;1779870;80;20963;-44
2022/07/16 09:09:44;;;;;;;2.10;1.30;;;;;;;23.97;39.68;99506.67;1779360;80;24942;-44
2022/07/16 09:12:25;;;;;;;2.10;1.30;;;;;;;23.94;40.30;99504.81;1780077;80;21555;-44
2022/07/16 09:14:52;;;;;;;1.92;1.17;;;;;;;24.05;39.11;99503.86;1762373;80;21227;-43
2022/07/16 09:17:20;;;;;;;2.22;1.40;;;;;;;24.14;38.25;99506.09;1747656;82;20954;-44
2022/07/16 09:19:47;;;;;;;1.62;1.35;;;;;;;24.23;38.27;99508.20;1707507;83;21418;-44
2022/07/16 09:22:15;;;;;;;3.27;1.30;;;;;;;24.32;39.08;99508.28;1707680;84;20998;-44
2022/07/16 09:24:54;;;;;;;2.50;1.35;;;;;;;24.42;39.76;99509.91;1707652;84;21035;-44
2022/07/16 09:27:25;;;;;;;2.47;1.65;;;;;;;24.60;38.72;99504.50;1707724;84;21247;-44
2022/07/16 09:30:03;;;;;;;1.42;1.20;;;;;;;24.79;38.20;99508.17;1743236;82;20988;-44
2022/07/16 09:32:36;;;;;;;2.92;1.87;;;;;;;24.89;37.40;99504.27;1707670;84;21563;-44
2022/07/16 09:35:16;;;;;;;1.55;1.30;;;;;;;24.96;36.44;99501.84;1743525;82;21048;-44
2022/07/16 09:37:59;;;;;;;2.75;1.50;;;;;;;24.96;36.63;99503.23;1707559;84;21093;-44
2022/07/16 09:40:45;;;;;;;1.87;1.37;;;;;;;24.92;36.92;99495.66;1707784;84;21087;-44
2022/07/16 09:43:17;;;;;;;2.02;1.22;;;;;;;24.82;37.15;99500.35;1707720;84;20946;-44
2022/07/16 09:46:00;;;;;;;3.70;1.30;;;;;;;24.67;37.78;99497.94;1707507;84;21049;-44
2022/07/16 09:48:30;;;;;;;1.57;1.02;;;;;;;24.52;38.80;99491.34;1743320;82;20977;-44
2022/07/16 09:51:19;;;;;;;2.75;1.40;;;;;;;24.44;38.28;99488.07;1707815;83;21024;-44
2022/07/16 09:53:49;;;;;;;2.25;1.50;;;;;;;24.46;37.49;99485.61;1707798;84;21765;-44
2022/07/16 09:56:24;;;;;;;3.12;1.50;;;;;;;24.50;37.26;99484.86;1743679;82;21025;-44
2022/07/16 09:59:00;;;;;;;3.47;1.50;;;;;;;24.61;35.78;99470.02;1706393;84;21566;-44
2022/07/16 10:01:29;;;;;;;2.15;1.30;;;;;;;24.75;36.54;99472.09;1707575;84;21009;-44
2022/07/16 10:03:56;;;;;;;2.30;1.22;;;;;;;24.98;37.34;99471.67;1707643;84;21005;-44
2022/07/16 10:06:24;;;;;;;13.15;11.57;;;;;;;25.26;37.47;99469.79;1707451;84;20946;-44
2022/07/16 10:08:53;;;;;;;4.53;2.40;;;;;;;25.50;35.88;99461.09;1698877;82;21033;-44
2022/07/16 10:11:21;;;;;;;5.47;2.10;;;;;;;25.62;35.48;99467.77;1707804;84;21030;-44
2022/07/16 10:13:49;;;;;;;4.60;1.50;;;;;;;25.62;35.80;99470.55;1743279;82;21022;-44
2022/07/16 10:16:15;;;;;;;3.33;1.52;;;;;;;25.58;34.93;99458.81;1715523;82;21065;-44
2022/07/16 10:18:45;;;;;;;4.05;1.30;;;;;;;25.57;34.50;99467.75;1773937;80;21278;-44
2022/07/16 10:21:19;;;;;;;4.33;1.40;;;;;;;25.58;34.01;99459.59;1774181;80;21538;-44
2022/07/16 10:24:11;;;;;;;3.27;1.20;;;;;;;25.70;34.94;99450.38;1750775;80;21037;-44
2022/07/16 10:26:41;;;;;;;1.72;1.20;;;;;;;25.89;34.56;99450.56;1687759;84;21041;-44
2022/07/16 10:29:09;;;;;;;1.80;1.30;;;;;;;26.04;33.54;99453.51;1743450;82;21575;-44
2022/07/16 10:33:10;;;;;;;1.50;1.30;;;;;;;26.03;33.23;99447.80;1779554;79;22301;-43
2022/07/16 10:35:52;;;;;;;7.47;2.95;;;;;;;25.93;32.38;99447.63;1739249;82;21025;-43
2022/07/16 10:38:23;;;;;;;2.72;1.90;;;;;;;26.02;31.36;99447.63;1720202;82;21966;-43
2022/07/16 10:41:15;;;;;;;1.85;1.47;;;;;;;26.08;30.85;99445.79;1739246;82;21540;-43
2022/07/16 10:43:43;;;;;;;2.98;1.52;;;;;;;26.14;31.20;99445.30;1739126;82;21612;-43
2022/07/16 10:46:11;;;;;;;2.85;1.30;;;;;;;26.15;31.43;99448.25;1720425;82;20998;-43
2022/07/16 10:48:44;;;;;;;1.85;1.40;;;;;;;26.12;32.06;99433.90;1739125;82;20979;-44
2022/07/16 10:51:18;;;;;;;2.20;1.32;;;;;;;26.26;32.95;99434.70;1739061;82;21564;-43
2022/07/16 10:54:18;;;;;;;3.85;1.72;;;;;;;26.49;33.16;99440.84;1738941;82;20978;-43
2022/07/16 10:56:48;;;;;;;2.50;1.77;;;;;;;26.59;31.97;99449.33;1738905;82;21568;-43
2022/07/16 10:59:24;;;;;;;5.35;3.60;;;;;;;26.67;32.06;99447.17;1739226;82;21120;-43
2022/07/16 11:01:54;;;;;;;8.05;5.72;;;;;;;26.77;32.16;99445.14;1738977;82;21544;-43
2022/07/16 11:04:33;;;;;;;;;;;;;;;26.71;32.33;99444.99;1735741;81;21210;-43
2022/07/16 11:07:03;;;;;;;3.87;1.85;;;;;;;26.75;34.21;99439.27;1727193;83;20098;-43
2022/07/16 11:09:32;;;;;;;5.78;3.08;;;;;;;26.76;33.49;99439.42;1727087;83;20981;-44
2022/07/16 11:12:24;;;;;;;;;;;;;;;26.80;32.47;99436.63;1729828;82;21080;-43
2022/07/16 11:14:54;;;;;;;2.80;2.10;;;;;;;26.65;31.74;99439.90;1726949;82;20162;-44
2022/07/16 11:17:26;;;;;;;3.12;2.12;;;;;;;26.43;33.79;99430.22;1694925;84;20971;-44
2022/07/16 11:19:57;;;;;;;2.17;1.45;;;;;;;26.59;34.19;99425.69;1681533;85;20945;-44
2022/07/16 11:22:29;;;;;;;5.55;3.55;;;;;;;26.68;33.40;99419.48;1694903;84;21486;-44
2022/07/16 11:25:01;;;;;;;5.08;2.25;;;;;;;26.87;32.75;99425.80;1681329;85;20997;-44
2022/07/16 11:27:32;;;;;;;3.00;1.80;;;;;;;26.93;30.73;99423.16;1694878;84;21016;-44
2022/07/16 11:30:05;;;;;;;2.47;1.40;;;;;;;26.97;31.65;99424.53;1681610;85;21258;-44
2022/07/16 11:32:32;;;;;;;2.25;1.55;;;;;;;27.14;31.58;99424.33;1689743;84;20989;-44
2022/07/16 11:35:06;;;;;;;3.58;1.65;;;;;;;27.33;31.11;99427.02;1721842;83;21558;-44
2022/07/16 11:37:55;;;;;;;2.05;1.52;;;;;;;27.54;31.26;99427.41;1722239;83;21064;-44
2022/07/16 11:40:37;;;;;;;;;;;;;;;27.79;30.71;99421.98;1689738;85;21000;-44
2022/07/16 11:43:05;;;;;;;3.75;1.57;;;;;;;27.89;30.05;99429.78;1671660;85;21265;-44
2022/07/16 11:45:44;;;;;;;2.60;1.50;;;;;;;27.89;29.99;99428.39;1686526;85;21495;-44
2022/07/16 11:48:14;;;;;;;4.37;1.50;;;;;;;27.81;30.69;99428.61;1721517;82;20976;-44
2022/07/16 11:50:42;;;;;;;2.02;1.60;;;;;;;27.80;30.85;99430.47;1686762;85;21542;-44